sensor_id;sensor_type;location;lat;lon;timestamp;P1;durP1;ratioP1;P2;durP2;ratioP2
8013;SDS011;4052;50.500;8.660;2022-11-14T00:02:06;2.20;;;1.67;;
8013;SDS011;4052;50.500;8.660;2022-11-14T00:04:32;1.87;;;1.53;;
8013;SDS011;4052;50.500;8.660;2022-11-14T00:06:58;1.33;;;1.33;;
8013;SDS011;4052;50.500;8.660;2022-11-14T00:09:25;1.33;;;1.23;;
8013;SDS011;4052;50.500;8.660;2022-11-14T00:11:51;1.47;;;1.33;;
8013;SDS011;4052;50.500;8.660;2022-11-14T00:14:17;2.50;;;1.37;;
8013;SDS011;4052;50.500;8.660;2022-11-14T00:16:43;2.43;;;2.27;;
8013;SDS011;4052;50.500;8.660;2022-11-14T00:19:09;7.70;;;1.70;;
8013;SDS011;4052;50.500;8.660;2022-11-14T00:21:35;1.77;;;1.67;;
8013;SDS011;4052;50.500;8.660;2022-11-14T00:24:01;3.60;;;1.27;;
8013;SDS011;4052;50.500;8.660;2022-11-14T00:26:27;1.53;;;1.40;;
8013;SDS011;4052;50.500;8.660;2022-11-14T00:28:53;2.57;;;2.37;;
8013;SDS011;4052;50.500;8.660;2022-11-14T00:31:19;2.50;;;2.13;;
8013;SDS011;4052;50.500;8.660;2022-11-14T00:33:45;2.73;;;2.47;;
8013;SDS011;4052;50.500;8.660;2022-11-14T00:36:11;2.20;;;2.07;;
8013;SDS011;4052;50.500;8.660;2022-11-14T00:38:37;2.00;;;1.83;;
8013;SDS011;4052;50.500;8.660;2022-11-14T00:41:03;1.23;;;1.23;;
8013;SDS011;4052;50.500;8.660;2022-11-14T00:43:29;2.43;;;2.17;;
8013;SDS011;4052;50.500;8.660;2022-11-14T00:45:55;1.67;;;1.50;;
8013;SDS011;4052;50.500;8.660;2022-11-14T00:48:21;1.87;;;1.33;;
8013;SDS011;4052;50.500;8.660;2022-11-14T00:50:47;1.80;;;1.67;;
8013;SDS011;4052;50.500;8.660;2022-11-14T00:53:13;1.63;;;1.23;;
8013;SDS011;4052;50.500;8.660;2022-11-14T00:55:39;3.63;;;1.63;;
8013;SDS011;4052;50.500;8.660;2022-11-14T00:58:06;3.53;;;2.30;;
8013;SDS011;4052;50.500;8.660;2022-11-14T01:00:32;4.33;;;1.93;;
8013;SDS011;4052;50.500;8.660;2022-11-14T01:02:58;0.97;;;0.97;;
8013;SDS011;4052;50.500;8.660;2022-11-14T01:05:24;1.77;;;1.50;;
8013;SDS011;4052;50.500;8.660;2022-11-14T01:07:50;2.10;;;1.77;;
8013;SDS011;4052;50.500;8.660;2022-11-14T01:10:16;1.87;;;1.77;;
8013;SDS011;4052;50.500;8.660;2022-11-14T01:12:43;1.70;;;1.70;;
8013;SDS011;4052;50.500;8.660;2022-11-14T01:15:09;1.50;;;1.50;;
8013;SDS011;4052;50.500;8.660;2022-11-14T01:17:35;1.87;;;1.23;;
8013;SDS011;4052;50.500;8.660;2022-11-14T01:20:01;1.10;;;1.10;;
8013;SDS011;4052;50.500;8.660;2022-11-14T01:22:28;1.20;;;1.20;;
8013;SDS011;4052;50.500;8.660;2022-11-14T01:24:54;1.57;;;1.40;;
8013;SDS011;4052;50.500;8.660;2022-11-14T01:27:22;2.40;;;1.10;;
8013;SDS011;4052;50.500;8.660;2022-11-14T01:29:48;0.90;;;0.90;;
8013;SDS011;4052;50.500;8.660;2022-11-14T01:32:14;1.07;;;1.07;;
8013;SDS011;4052;50.500;8.660;2022-11-14T01:34:40;1.73;;;1.63;;
8013;SDS011;4052;50.500;8.660;2022-11-14T01:37:06;4.33;;;1.87;;
8013;SDS011;4052;50.500;8.660;2022-11-14T01:39:32;1.63;;;1.53;;
8013;SDS011;4052;50.500;8.660;2022-11-14T01:41:58;2.40;;;1.70;;
8013;SDS011;4052;50.500;8.660;2022-11-14T01:44:46;1.33;;;1.23;;
8013;SDS011;4052;50.500;8.660;2022-11-14T01:47:10;1.80;;;1.70;;
8013;SDS011;4052;50.500;8.660;2022-11-14T01:49:38;1.87;;;1.27;;
8013;SDS011;4052;50.500;8.660;2022-11-14T01:52:06;2.03;;;1.83;;
8013;SDS011;4052;50.500;8.660;2022-11-14T01:54:34;2.03;;;1.87;;
8013;SDS011;4052;50.500;8.660;2022-11-14T01:57:02;3.43;;;1.57;;
8013;SDS011;4052;50.500;8.660;2022-11-14T01:59:29;1.50;;;1.40;;
8013;SDS011;4052;50.500;8.660;2022-11-14T02:01:58;2.53;;;1.83;;
8013;SDS011;4052;50.500;8.660;2022-11-14T02:04:30;2.03;;;1.93;;
8013;SDS011;4052;50.500;8.660;2022-11-14T02:06:59;1.83;;;1.70;;
8013;SDS011;4052;50.500;8.660;2022-11-14T02:09:31;2.40;;;1.90;;
8013;SDS011;4052;50.500;8.660;2022-11-14T02:11:58;1.77;;;1.00;;
8013;SDS011;4052;50.500;8.660;2022-11-14T02:14:25;2.00;;;1.90;;
8013;SDS011;4052;50.500;8.660;2022-11-14T02:16:51;1.73;;;1.63;;
8013;SDS011;4052;50.500;8.660;2022-11-14T02:19:18;1.43;;;1.33;;
8013;SDS011;4052;50.500;8.660;2022-11-14T02:21:44;1.33;;;1.33;;
8013;SDS011;4052;50.500;8.660;2022-11-14T02:24:10;1.73;;;1.63;;
8013;SDS011;4052;50.500;8.660;2022-11-14T02:26:37;1.43;;;1.13;;
8013;SDS011;4052;50.500;8.660;2022-11-14T02:29:04;1.53;;;1.33;;
8013;SDS011;4052;50.500;8.660;2022-11-14T02:31:31;3.83;;;2.07;;
8013;SDS011;4052;50.500;8.660;2022-11-14T02:33:57;2.07;;;1.83;;
8013;SDS011;4052;50.500;8.660;2022-11-14T02:36:23;1.40;;;1.40;;
8013;SDS011;4052;50.500;8.660;2022-11-14T02:38:49;1.93;;;1.70;;
8013;SDS011;4052;50.500;8.660;2022-11-14T02:41:15;2.80;;;2.13;;
8013;SDS011;4052;50.500;8.660;2022-11-14T02:43:41;1.90;;;1.80;;
8013;SDS011;4052;50.500;8.660;2022-11-14T02:46:07;1.47;;;1.47;;
8013;SDS011;4052;50.500;8.660;2022-11-14T02:48:33;2.17;;;1.67;;
8013;SDS011;4052;50.500;8.660;2022-11-14T02:50:59;2.03;;;1.90;;
8013;SDS011;4052;50.500;8.660;2022-11-14T02:53:24;1.80;;;1.57;;
8013;SDS011;4052;50.500;8.660;2022-11-14T02:55:50;1.37;;;1.27;;
8013;SDS011;4052;50.500;8.660;2022-11-14T02:58:16;2.03;;;1.80;;
8013;SDS011;4052;50.500;8.660;2022-11-14T03:00:42;2.07;;;1.17;;
8013;SDS011;4052;50.500;8.660;2022-11-14T03:03:08;1.80;;;1.70;;
8013;SDS011;4052;50.500;8.660;2022-11-14T03:05:35;2.97;;;1.93;;
8013;SDS011;4052;50.500;8.660;2022-11-14T03:08:01;7.83;;;1.50;;
8013;SDS011;4052;50.500;8.660;2022-11-14T03:10:27;1.43;;;1.40;;
8013;SDS011;4052;50.500;8.660;2022-11-14T03:12:54;2.30;;;2.00;;
8013;SDS011;4052;50.500;8.660;2022-11-14T03:15:20;2.23;;;1.30;;
8013;SDS011;4052;50.500;8.660;2022-11-14T03:17:46;2.10;;;1.40;;
8013;SDS011;4052;50.500;8.660;2022-11-14T03:20:12;1.90;;;1.77;;
8013;SDS011;4052;50.500;8.660;2022-11-14T03:22:38;2.70;;;1.70;;
8013;SDS011;4052;50.500;8.660;2022-11-14T03:25:04;0.87;;;0.87;;
8013;SDS011;4052;50.500;8.660;2022-11-14T03:27:30;2.30;;;2.10;;
8013;SDS011;4052;50.500;8.660;2022-11-14T03:29:56;3.13;;;1.83;;
8013;SDS011;4052;50.500;8.660;2022-11-14T03:32:22;2.07;;;1.97;;
8013;SDS011;4052;50.500;8.660;2022-11-14T03:34:48;1.67;;;1.57;;
8013;SDS011;4052;50.500;8.660;2022-11-14T03:37:14;1.47;;;1.30;;
8013;SDS011;4052;50.500;8.660;2022-11-14T03:39:40;2.20;;;1.60;;
8013;SDS011;4052;50.500;8.660;2022-11-14T03:42:05;1.93;;;1.80;;
8013;SDS011;4052;50.500;8.660;2022-11-14T03:44:32;1.83;;;1.60;;
8013;SDS011;4052;50.500;8.660;2022-11-14T03:46:58;3.23;;;1.90;;
8013;SDS011;4052;50.500;8.660;2022-11-14T03:49:24;1.60;;;1.50;;
8013;SDS011;4052;50.500;8.660;2022-11-14T03:51:50;1.23;;;1.23;;
8013;SDS011;4052;50.500;8.660;2022-11-14T03:54:15;1.40;;;1.20;;
8013;SDS011;4052;50.500;8.660;2022-11-14T03:56:41;1.93;;;1.53;;
8013;SDS011;4052;50.500;8.660;2022-11-14T03:59:07;1.73;;;1.63;;
8013;SDS011;4052;50.500;8.660;2022-11-14T04:01:33;2.33;;;1.47;;
8013;SDS011;4052;50.500;8.660;2022-11-14T04:03:59;1.30;;;1.30;;
8013;SDS011;4052;50.500;8.660;2022-11-14T04:06:25;3.57;;;1.90;;
8013;SDS011;4052;50.500;8.660;2022-11-14T04:08:51;1.57;;;1.53;;
8013;SDS011;4052;50.500;8.660;2022-11-14T04:11:17;1.43;;;1.33;;
8013;SDS011;4052;50.500;8.660;2022-11-14T04:13:43;1.97;;;1.20;;
8013;SDS011;4052;50.500;8.660;2022-11-14T04:16:09;1.40;;;1.10;;
8013;SDS011;4052;50.500;8.660;2022-11-14T04:18:35;1.10;;;1.10;;
8013;SDS011;4052;50.500;8.660;2022-11-14T04:21:01;1.60;;;1.50;;
8013;SDS011;4052;50.500;8.660;2022-11-14T04:23:27;0.93;;;0.93;;
8013;SDS011;4052;50.500;8.660;2022-11-14T04:25:53;1.70;;;1.60;;
8013;SDS011;4052;50.500;8.660;2022-11-14T04:28:19;1.67;;;1.50;;
8013;SDS011;4052;50.500;8.660;2022-11-14T04:30:45;1.47;;;1.37;;
8013;SDS011;4052;50.500;8.660;2022-11-14T04:33:11;1.63;;;1.40;;
8013;SDS011;4052;50.500;8.660;2022-11-14T04:35:37;1.70;;;0.90;;
8013;SDS011;4052;50.500;8.660;2022-11-14T04:38:03;1.13;;;1.10;;
8013;SDS011;4052;50.500;8.660;2022-11-14T04:40:29;2.60;;;1.33;;
8013;SDS011;4052;50.500;8.660;2022-11-14T04:42:55;1.50;;;1.40;;
8013;SDS011;4052;50.500;8.660;2022-11-14T04:45:21;1.30;;;1.20;;
8013;SDS011;4052;50.500;8.660;2022-11-14T04:47:47;4.37;;;1.40;;
8013;SDS011;4052;50.500;8.660;2022-11-14T04:50:13;0.90;;;0.90;;
8013;SDS011;4052;50.500;8.660;2022-11-14T04:52:38;2.90;;;1.97;;
8013;SDS011;4052;50.500;8.660;2022-11-14T04:55:04;1.13;;;1.13;;
8013;SDS011;4052;50.500;8.660;2022-11-14T04:57:30;4.73;;;1.33;;
8013;SDS011;4052;50.500;8.660;2022-11-14T04:59:56;3.67;;;1.10;;
8013;SDS011;4052;50.500;8.660;2022-11-14T05:02:22;0.70;;;0.70;;
8013;SDS011;4052;50.500;8.660;2022-11-14T05:04:48;5.50;;;1.30;;
8013;SDS011;4052;50.500;8.660;2022-11-14T05:07:14;0.90;;;0.90;;
8013;SDS011;4052;50.500;8.660;2022-11-14T05:09:40;1.03;;;1.03;;
8013;SDS011;4052;50.500;8.660;2022-11-14T05:12:06;1.73;;;1.63;;
8013;SDS011;4052;50.500;8.660;2022-11-14T05:14:32;2.20;;;2.07;;
8013;SDS011;4052;50.500;8.660;2022-11-14T05:16:58;2.03;;;1.30;;
8013;SDS011;4052;50.500;8.660;2022-11-14T05:19:24;3.60;;;1.23;;
8013;SDS011;4052;50.500;8.660;2022-11-14T05:21:50;2.10;;;1.20;;
8013;SDS011;4052;50.500;8.660;2022-11-14T05:24:16;1.13;;;1.13;;
8013;SDS011;4052;50.500;8.660;2022-11-14T05:26:43;1.53;;;1.40;;
8013;SDS011;4052;50.500;8.660;2022-11-14T05:29:09;1.13;;;1.07;;
8013;SDS011;4052;50.500;8.660;2022-11-14T05:31:35;1.73;;;1.73;;
8013;SDS011;4052;50.500;8.660;2022-11-14T05:34:01;2.17;;;1.37;;
8013;SDS011;4052;50.500;8.660;2022-11-14T05:36:27;1.47;;;1.13;;
8013;SDS011;4052;50.500;8.660;2022-11-14T05:38:53;6.83;;;2.47;;
8013;SDS011;4052;50.500;8.660;2022-11-14T05:41:19;1.93;;;1.77;;
8013;SDS011;4052;50.500;8.660;2022-11-14T05:43:45;1.20;;;1.20;;
8013;SDS011;4052;50.500;8.660;2022-11-14T05:46:12;3.57;;;2.00;;
8013;SDS011;4052;50.500;8.660;2022-11-14T05:48:39;1.20;;;1.10;;
8013;SDS011;4052;50.500;8.660;2022-11-14T05:51:06;1.47;;;1.43;;
8013;SDS011;4052;50.500;8.660;2022-11-14T05:53:32;1.87;;;1.17;;
8013;SDS011;4052;50.500;8.660;2022-11-14T05:56:02;2.17;;;1.70;;
8013;SDS011;4052;50.500;8.660;2022-11-14T05:58:32;2.10;;;2.00;;
8013;SDS011;4052;50.500;8.660;2022-11-14T06:01:02;1.80;;;1.70;;
8013;SDS011;4052;50.500;8.660;2022-11-14T06:03:29;1.73;;;1.63;;
8013;SDS011;4052;50.500;8.660;2022-11-14T06:05:55;1.00;;;1.00;;
8013;SDS011;4052;50.500;8.660;2022-11-14T06:08:21;2.30;;;2.20;;
8013;SDS011;4052;50.500;8.660;2022-11-14T06:10:47;1.93;;;1.80;;
8013;SDS011;4052;50.500;8.660;2022-11-14T06:13:13;1.13;;;1.13;;
8013;SDS011;4052;50.500;8.660;2022-11-14T06:15:39;13.23;;;1.40;;
8013;SDS011;4052;50.500;8.660;2022-11-14T06:18:05;2.57;;;2.37;;
8013;SDS011;4052;50.500;8.660;2022-11-14T06:20:31;2.90;;;2.70;;
8013;SDS011;4052;50.500;8.660;2022-11-14T06:22:57;4.57;;;3.00;;
8013;SDS011;4052;50.500;8.660;2022-11-14T06:25:23;1.23;;;1.23;;
8013;SDS011;4052;50.500;8.660;2022-11-14T06:27:49;30.33;;;10.50;;
8013;SDS011;4052;50.500;8.660;2022-11-14T06:30:15;7.90;;;5.07;;
8013;SDS011;4052;50.500;8.660;2022-11-14T06:32:41;3.53;;;2.70;;
8013;SDS011;4052;50.500;8.660;2022-11-14T06:35:07;2.63;;;1.70;;
8013;SDS011;4052;50.500;8.660;2022-11-14T06:37:34;2.50;;;2.27;;
8013;SDS011;4052;50.500;8.660;2022-11-14T06:40:01;7.10;;;2.50;;
8013;SDS011;4052;50.500;8.660;2022-11-14T06:42:27;3.97;;;1.87;;
8013;SDS011;4052;50.500;8.660;2022-11-14T06:44:53;3.53;;;1.90;;
8013;SDS011;4052;50.500;8.660;2022-11-14T06:47:18;1.93;;;1.83;;
8013;SDS011;4052;50.500;8.660;2022-11-14T06:49:44;1.63;;;1.50;;
8013;SDS011;4052;50.500;8.660;2022-11-14T06:52:10;2.30;;;2.13;;
8013;SDS011;4052;50.500;8.660;2022-11-14T06:54:36;3.13;;;2.17;;
8013;SDS011;4052;50.500;8.660;2022-11-14T06:57:02;2.50;;;2.30;;
8013;SDS011;4052;50.500;8.660;2022-11-14T06:59:28;2.33;;;2.13;;
8013;SDS011;4052;50.500;8.660;2022-11-14T07:01:55;3.37;;;2.17;;
8013;SDS011;4052;50.500;8.660;2022-11-14T07:04:21;2.30;;;2.10;;
8013;SDS011;4052;50.500;8.660;2022-11-14T07:06:47;2.40;;;1.83;;
8013;SDS011;4052;50.500;8.660;2022-11-14T07:09:13;3.37;;;3.00;;
8013;SDS011;4052;50.500;8.660;2022-11-14T07:11:39;2.70;;;2.37;;
8013;SDS011;4052;50.500;8.660;2022-11-14T07:14:05;2.57;;;2.43;;
8013;SDS011;4052;50.500;8.660;2022-11-14T07:16:32;2.73;;;1.83;;
8013;SDS011;4052;50.500;8.660;2022-11-14T07:19:02;3.40;;;2.50;;
8013;SDS011;4052;50.500;8.660;2022-11-14T07:21:28;2.90;;;2.70;;
8013;SDS011;4052;50.500;8.660;2022-11-14T07:23:55;2.10;;;2.00;;
8013;SDS011;4052;50.500;8.660;2022-11-14T07:26:21;2.40;;;2.23;;
8013;SDS011;4052;50.500;8.660;2022-11-14T07:28:47;2.07;;;1.93;;
8013;SDS011;4052;50.500;8.660;2022-11-14T07:31:14;2.60;;;2.40;;
8013;SDS011;4052;50.500;8.660;2022-11-14T07:33:40;2.87;;;2.17;;
8013;SDS011;4052;50.500;8.660;2022-11-14T07:36:07;2.80;;;2.07;;
8013;SDS011;4052;50.500;8.660;2022-11-14T07:38:34;3.93;;;2.40;;
8013;SDS011;4052;50.500;8.660;2022-11-14T07:41:10;1.80;;;1.70;;
8013;SDS011;4052;50.500;8.660;2022-11-14T07:43:37;2.00;;;1.50;;
8013;SDS011;4052;50.500;8.660;2022-11-14T07:46:04;2.40;;;2.20;;
8013;SDS011;4052;50.500;8.660;2022-11-14T07:48:32;1.73;;;1.63;;
8013;SDS011;4052;50.500;8.660;2022-11-14T07:50:59;3.90;;;3.03;;
8013;SDS011;4052;50.500;8.660;2022-11-14T07:53:25;2.33;;;2.13;;
8013;SDS011;4052;50.500;8.660;2022-11-14T07:55:51;2.90;;;2.67;;
8013;SDS011;4052;50.500;8.660;2022-11-14T07:58:17;2.13;;;2.00;;
8013;SDS011;4052;50.500;8.660;2022-11-14T08:00:43;5.37;;;1.90;;
8013;SDS011;4052;50.500;8.660;2022-11-14T08:03:09;2.67;;;2.47;;
8013;SDS011;4052;50.500;8.660;2022-11-14T08:05:35;2.33;;;2.20;;
8013;SDS011;4052;50.500;8.660;2022-11-14T08:08:01;2.40;;;2.07;;
8013;SDS011;4052;50.500;8.660;2022-11-14T08:10:27;6.27;;;2.27;;
8013;SDS011;4052;50.500;8.660;2022-11-14T08:13:00;3.10;;;2.43;;
8013;SDS011;4052;50.500;8.660;2022-11-14T08:15:27;6.03;;;2.43;;
8013;SDS011;4052;50.500;8.660;2022-11-14T08:17:56;2.97;;;2.73;;
8013;SDS011;4052;50.500;8.660;2022-11-14T08:20:22;3.13;;;2.60;;
8013;SDS011;4052;50.500;8.660;2022-11-14T08:22:48;3.00;;;2.80;;
8013;SDS011;4052;50.500;8.660;2022-11-14T08:25:14;5.17;;;3.37;;
8013;SDS011;4052;50.500;8.660;2022-11-14T08:27:40;4.10;;;2.67;;
8013;SDS011;4052;50.500;8.660;2022-11-14T08:30:06;9.13;;;3.10;;
8013;SDS011;4052;50.500;8.660;2022-11-14T08:32:32;3.60;;;2.43;;
8013;SDS011;4052;50.500;8.660;2022-11-14T08:34:58;6.43;;;3.13;;
8013;SDS011;4052;50.500;8.660;2022-11-14T08:37:24;8.60;;;3.27;;
8013;SDS011;4052;50.500;8.660;2022-11-14T08:39:50;5.77;;;4.40;;
8013;SDS011;4052;50.500;8.660;2022-11-14T08:42:16;3.87;;;3.07;;
8013;SDS011;4052;50.500;8.660;2022-11-14T08:44:42;5.90;;;4.03;;
8013;SDS011;4052;50.500;8.660;2022-11-14T08:47:08;5.40;;;3.57;;
8013;SDS011;4052;50.500;8.660;2022-11-14T08:49:34;8.57;;;4.20;;
8013;SDS011;4052;50.500;8.660;2022-11-14T08:52:00;5.70;;;3.30;;
8013;SDS011;4052;50.500;8.660;2022-11-14T08:54:26;11.53;;;3.90;;
8013;SDS011;4052;50.500;8.660;2022-11-14T08:56:51;5.80;;;3.83;;
8013;SDS011;4052;50.500;8.660;2022-11-14T08:59:17;12.17;;;5.53;;
8013;SDS011;4052;50.500;8.660;2022-11-14T09:01:43;9.60;;;5.90;;
8013;SDS011;4052;50.500;8.660;2022-11-14T09:04:09;6.63;;;4.67;;
8013;SDS011;4052;50.500;8.660;2022-11-14T09:06:35;11.20;;;6.07;;
8013;SDS011;4052;50.500;8.660;2022-11-14T09:09:01;6.73;;;3.23;;
8013;SDS011;4052;50.500;8.660;2022-11-14T09:11:27;9.97;;;5.50;;
8013;SDS011;4052;50.500;8.660;2022-11-14T09:13:53;7.97;;;4.77;;
8013;SDS011;4052;50.500;8.660;2022-11-14T09:16:19;8.90;;;4.70;;
8013;SDS011;4052;50.500;8.660;2022-11-14T09:18:45;11.10;;;3.43;;
8013;SDS011;4052;50.500;8.660;2022-11-14T09:21:11;11.57;;;5.27;;
8013;SDS011;4052;50.500;8.660;2022-11-14T09:23:37;4.67;;;3.33;;
8013;SDS011;4052;50.500;8.660;2022-11-14T09:26:03;15.20;;;6.17;;
8013;SDS011;4052;50.500;8.660;2022-11-14T09:28:29;5.83;;;4.47;;
8013;SDS011;4052;50.500;8.660;2022-11-14T09:31:02;7.30;;;4.47;;
8013;SDS011;4052;50.500;8.660;2022-11-14T09:33:28;4.40;;;3.97;;
8013;SDS011;4052;50.500;8.660;2022-11-14T09:35:55;4.93;;;3.37;;
8013;SDS011;4052;50.500;8.660;2022-11-14T09:38:21;8.17;;;4.90;;
8013;SDS011;4052;50.500;8.660;2022-11-14T09:41:03;6.47;;;4.53;;
8013;SDS011;4052;50.500;8.660;2022-11-14T09:43:46;6.37;;;3.70;;
8013;SDS011;4052;50.500;8.660;2022-11-14T09:46:21;11.23;;;4.93;;
8013;SDS011;4052;50.500;8.660;2022-11-14T09:48:47;6.53;;;4.20;;
8013;SDS011;4052;50.500;8.660;2022-11-14T09:51:15;7.70;;;3.20;;
8013;SDS011;4052;50.500;8.660;2022-11-14T09:53:52;7.30;;;5.23;;
8013;SDS011;4052;50.500;8.660;2022-11-14T09:56:24;9.80;;;5.30;;
8013;SDS011;4052;50.500;8.660;2022-11-14T09:58:50;11.80;;;5.60;;
8013;SDS011;4052;50.500;8.660;2022-11-14T10:08:54;8.87;;;4.10;;
8013;SDS011;4052;50.500;8.660;2022-11-14T10:11:34;4.57;;;3.53;;
8013;SDS011;4052;50.500;8.660;2022-11-14T10:16:51;5.20;;;4.03;;
8013;SDS011;4052;50.500;8.660;2022-11-14T10:19:24;5.83;;;4.17;;
8013;SDS011;4052;50.500;8.660;2022-11-14T10:21:53;5.80;;;4.73;;
8013;SDS011;4052;50.500;8.660;2022-11-14T10:27:03;9.37;;;5.23;;
8013;SDS011;4052;50.500;8.660;2022-11-14T10:29:39;6.33;;;3.43;;
8013;SDS011;4052;50.500;8.660;2022-11-14T10:34:53;5.83;;;4.43;;
8013;SDS011;4052;50.500;8.660;2022-11-14T10:37:25;4.87;;;3.07;;
8013;SDS011;4052;50.500;8.660;2022-11-14T10:39:56;7.77;;;4.20;;
8013;SDS011;4052;50.500;8.660;2022-11-14T10:42:27;9.23;;;5.17;;
8013;SDS011;4052;50.500;8.660;2022-11-14T10:45:00;10.63;;;5.83;;
8013;SDS011;4052;50.500;8.660;2022-11-14T10:47:29;9.13;;;5.17;;
8013;SDS011;4052;50.500;8.660;2022-11-14T10:49:57;9.80;;;5.37;;
8013;SDS011;4052;50.500;8.660;2022-11-14T10:52:34;4.10;;;3.80;;
8013;SDS011;4052;50.500;8.660;2022-11-14T10:55:06;9.80;;;4.97;;
8013;SDS011;4052;50.500;8.660;2022-11-14T10:57:32;8.97;;;5.13;;
8013;SDS011;4052;50.500;8.660;2022-11-14T10:59:59;8.03;;;3.40;;
8013;SDS011;4052;50.500;8.660;2022-11-14T11:02:25;6.30;;;3.97;;
8013;SDS011;4052;50.500;8.660;2022-11-14T11:04:50;7.67;;;4.13;;
8013;SDS011;4052;50.500;8.660;2022-11-14T11:07:18;7.80;;;5.13;;
8013;SDS011;4052;50.500;8.660;2022-11-14T11:10:03;6.40;;;4.33;;
8013;SDS011;4052;50.500;8.660;2022-11-14T11:12:49;7.87;;;4.30;;
8013;SDS011;4052;50.500;8.660;2022-11-14T11:15:20;6.77;;;3.33;;
8013;SDS011;4052;50.500;8.660;2022-11-14T11:18:20;6.40;;;5.13;;
8013;SDS011;4052;50.500;8.660;2022-11-14T11:20:36;8.87;;;3.70;;
8013;SDS011;4052;50.500;8.660;2022-11-14T11:23:15;5.73;;;4.07;;
8013;SDS011;4052;50.500;8.660;2022-11-14T11:25:42;8.43;;;5.07;;
8013;SDS011;4052;50.500;8.660;2022-11-14T11:30:37;8.30;;;4.07;;
8013;SDS011;4052;50.500;8.660;2022-11-14T11:35:44;11.30;;;5.50;;
8013;SDS011;4052;50.500;8.660;2022-11-14T11:38:12;5.33;;;4.30;;
8013;SDS011;4052;50.500;8.660;2022-11-14T11:40:39;8.97;;;5.57;;
8013;SDS011;4052;50.500;8.660;2022-11-14T11:43:09;7.00;;;5.20;;
8013;SDS011;4052;50.500;8.660;2022-11-14T11:45:36;9.87;;;4.40;;
8013;SDS011;4052;50.500;8.660;2022-11-14T11:48:07;14.47;;;7.60;;
8013;SDS011;4052;50.500;8.660;2022-11-14T11:50:38;9.27;;;6.13;;
8013;SDS011;4052;50.500;8.660;2022-11-14T11:53:06;11.97;;;4.10;;
8013;SDS011;4052;50.500;8.660;2022-11-14T11:55:39;6.50;;;4.73;;
8013;SDS011;4052;50.500;8.660;2022-11-14T12:00:35;10.60;;;5.27;;
8013;SDS011;4052;50.500;8.660;2022-11-14T12:03:01;7.80;;;5.03;;
8013;SDS011;4052;50.500;8.660;2022-11-14T12:05:38;6.87;;;4.60;;
8013;SDS011;4052;50.500;8.660;2022-11-14T12:10:51;10.80;;;4.07;;
8013;SDS011;4052;50.500;8.660;2022-11-14T12:16:02;6.23;;;3.70;;
8013;SDS011;4052;50.500;8.660;2022-11-14T12:18:34;5.73;;;3.67;;
8013;SDS011;4052;50.500;8.660;2022-11-14T12:21:10;7.30;;;3.30;;
8013;SDS011;4052;50.500;8.660;2022-11-14T12:23:46;6.83;;;4.10;;
8013;SDS011;4052;50.500;8.660;2022-11-14T12:29:01;5.10;;;3.33;;
8013;SDS011;4052;50.500;8.660;2022-11-14T12:31:35;4.77;;;2.70;;
8013;SDS011;4052;50.500;8.660;2022-11-14T12:34:15;3.53;;;2.67;;
8013;SDS011;4052;50.500;8.660;2022-11-14T12:36:44;4.60;;;3.73;;
8013;SDS011;4052;50.500;8.660;2022-11-14T12:39:24;5.23;;;3.60;;
8013;SDS011;4052;50.500;8.660;2022-11-14T12:41:50;7.10;;;4.43;;
8013;SDS011;4052;50.500;8.660;2022-11-14T12:52:01;5.83;;;3.33;;
8013;SDS011;4052;50.500;8.660;2022-11-14T12:54:40;7.60;;;3.63;;
8013;SDS011;4052;50.500;8.660;2022-11-14T12:57:10;6.57;;;3.90;;
8013;SDS011;4052;50.500;8.660;2022-11-14T13:00:02;5.80;;;3.23;;
8013;SDS011;4052;50.500;8.660;2022-11-14T13:10:24;7.27;;;4.67;;
8013;SDS011;4052;50.500;8.660;2022-11-14T13:12:56;8.03;;;3.87;;
8013;SDS011;4052;50.500;8.660;2022-11-14T13:16:20;5.47;;;3.23;;
8013;SDS011;4052;50.500;8.660;2022-11-14T13:18:58;2.77;;;2.30;;
8013;SDS011;4052;50.500;8.660;2022-11-14T13:27:26;6.07;;;2.93;;
8013;SDS011;4052;50.500;8.660;2022-11-14T13:29:53;2.97;;;2.70;;
8013;SDS011;4052;50.500;8.660;2022-11-14T13:35:04;4.07;;;2.57;;
8013;SDS011;4052;50.500;8.660;2022-11-14T13:43:12;8.10;;;3.87;;
8013;SDS011;4052;50.500;8.660;2022-11-14T13:48:35;4.17;;;2.97;;
8013;SDS011;4052;50.500;8.660;2022-11-14T13:51:06;3.67;;;2.90;;
8013;SDS011;4052;50.500;8.660;2022-11-14T13:53:34;5.20;;;2.50;;
8013;SDS011;4052;50.500;8.660;2022-11-14T14:03:51;7.60;;;3.07;;
8013;SDS011;4052;50.500;8.660;2022-11-14T14:14:02;2.83;;;2.40;;
8013;SDS011;4052;50.500;8.660;2022-11-14T14:16:43;2.73;;;1.70;;
8013;SDS011;4052;50.500;8.660;2022-11-14T14:26:55;2.93;;;2.27;;
8013;SDS011;4052;50.500;8.660;2022-11-14T14:34:37;4.27;;;2.07;;
8013;SDS011;4052;50.500;8.660;2022-11-14T14:37:12;2.03;;;1.80;;
8013;SDS011;4052;50.500;8.660;2022-11-14T14:39:39;3.03;;;1.80;;
8013;SDS011;4052;50.500;8.660;2022-11-14T14:42:09;2.80;;;2.13;;
8013;SDS011;4052;50.500;8.660;2022-11-14T14:44:36;2.60;;;1.97;;
8013;SDS011;4052;50.500;8.660;2022-11-14T14:49:55;2.00;;;1.80;;
8013;SDS011;4052;50.500;8.660;2022-11-14T14:54:53;3.77;;;2.47;;
8013;SDS011;4052;50.500;8.660;2022-11-14T14:57:19;6.07;;;2.53;;
8013;SDS011;4052;50.500;8.660;2022-11-14T14:59:45;3.03;;;2.73;;
8013;SDS011;4052;50.500;8.660;2022-11-14T15:02:13;6.67;;;3.87;;
8013;SDS011;4052;50.500;8.660;2022-11-14T15:04:40;5.70;;;2.80;;
8013;SDS011;4052;50.500;8.660;2022-11-14T15:07:16;3.67;;;2.37;;
8013;SDS011;4052;50.500;8.660;2022-11-14T15:09:54;5.90;;;3.27;;
8013;SDS011;4052;50.500;8.660;2022-11-14T15:12:21;3.23;;;2.43;;
8013;SDS011;4052;50.500;8.660;2022-11-14T15:14:48;3.27;;;2.20;;
8013;SDS011;4052;50.500;8.660;2022-11-14T15:17:14;3.10;;;2.13;;
8013;SDS011;4052;50.500;8.660;2022-11-14T15:19:41;2.37;;;2.17;;
8013;SDS011;4052;50.500;8.660;2022-11-14T15:24:34;3.63;;;2.93;;
8013;SDS011;4052;50.500;8.660;2022-11-14T15:27:04;4.40;;;2.37;;
8013;SDS011;4052;50.500;8.660;2022-11-14T15:29:31;5.17;;;3.17;;
8013;SDS011;4052;50.500;8.660;2022-11-14T15:31:58;4.57;;;2.97;;
8013;SDS011;4052;50.500;8.660;2022-11-14T15:34:31;2.83;;;2.07;;
8013;SDS011;4052;50.500;8.660;2022-11-14T15:37:14;5.70;;;2.70;;
8013;SDS011;4052;50.500;8.660;2022-11-14T15:39:43;5.43;;;2.47;;
8013;SDS011;4052;50.500;8.660;2022-11-14T15:44:41;6.23;;;3.87;;
8013;SDS011;4052;50.500;8.660;2022-11-14T15:47:55;6.80;;;3.30;;
8013;SDS011;4052;50.500;8.660;2022-11-14T15:49:57;4.50;;;3.20;;
8013;SDS011;4052;50.500;8.660;2022-11-14T15:54:50;3.97;;;2.90;;
8013;SDS011;4052;50.500;8.660;2022-11-14T15:57:16;2.23;;;2.03;;
8013;SDS011;4052;50.500;8.660;2022-11-14T15:59:42;4.80;;;2.83;;
8013;SDS011;4052;50.500;8.660;2022-11-14T16:02:18;3.40;;;2.63;;
8013;SDS011;4052;50.500;8.660;2022-11-14T16:04:45;3.27;;;2.23;;
8013;SDS011;4052;50.500;8.660;2022-11-14T16:07:12;4.17;;;2.57;;
8013;SDS011;4052;50.500;8.660;2022-11-14T16:09:38;3.17;;;2.87;;
8013;SDS011;4052;50.500;8.660;2022-11-14T16:12:04;3.23;;;2.47;;
8013;SDS011;4052;50.500;8.660;2022-11-14T16:14:31;2.93;;;2.43;;
8013;SDS011;4052;50.500;8.660;2022-11-14T16:16:56;2.63;;;1.77;;
8013;SDS011;4052;50.500;8.660;2022-11-14T16:19:22;5.27;;;3.10;;
8013;SDS011;4052;50.500;8.660;2022-11-14T16:21:49;3.73;;;2.80;;
8013;SDS011;4052;50.500;8.660;2022-11-14T16:24:16;5.27;;;2.23;;
8013;SDS011;4052;50.500;8.660;2022-11-14T16:26:42;1.93;;;1.73;;
8013;SDS011;4052;50.500;8.660;2022-11-14T16:29:08;2.57;;;2.17;;
8013;SDS011;4052;50.500;8.660;2022-11-14T16:31:34;4.47;;;2.90;;
8013;SDS011;4052;50.500;8.660;2022-11-14T16:34:00;4.73;;;2.97;;
8013;SDS011;4052;50.500;8.660;2022-11-14T16:36:26;3.40;;;2.47;;
8013;SDS011;4052;50.500;8.660;2022-11-14T16:38:55;4.50;;;2.10;;
8013;SDS011;4052;50.500;8.660;2022-11-14T16:41:23;3.27;;;2.57;;
8013;SDS011;4052;50.500;8.660;2022-11-14T16:43:49;1.97;;;1.53;;
8013;SDS011;4052;50.500;8.660;2022-11-14T16:46:14;3.57;;;2.10;;
8013;SDS011;4052;50.500;8.660;2022-11-14T16:48:40;2.23;;;2.10;;
8013;SDS011;4052;50.500;8.660;2022-11-14T16:51:07;2.87;;;2.57;;
8013;SDS011;4052;50.500;8.660;2022-11-14T16:53:33;2.57;;;1.93;;
8013;SDS011;4052;50.500;8.660;2022-11-14T16:55:59;3.07;;;1.97;;
8013;SDS011;4052;50.500;8.660;2022-11-14T16:58:25;3.23;;;2.67;;
8013;SDS011;4052;50.500;8.660;2022-11-14T17:00:51;2.83;;;2.23;;
8013;SDS011;4052;50.500;8.660;2022-11-14T17:03:17;2.63;;;1.93;;
8013;SDS011;4052;50.500;8.660;2022-11-14T17:05:44;2.10;;;1.83;;